createdAt,value
2017-09-09T00:02:05.009Z,67.40
2017-09-09T00:04:32.538Z,67.40
2017-09-09T00:07:00.065Z,67.60
2017-09-09T00:09:27.559Z,67.90
2017-09-09T00:11:55.865Z,68.20
2017-09-09T00:14:23.387Z,68.20
2017-09-09T00:16:51.682Z,69.30
2017-09-09T00:19:19.944Z,68.60
2017-09-09T00:21:48.233Z,68.60
2017-09-09T00:24:16.495Z,68.90
2017-09-09T00:26:44.787Z,69.00
2017-09-09T00:29:13.052Z,69.30
2017-09-09T00:31:40.593Z,69.30
2017-09-09T00:34:08.148Z,69.50
2017-09-09T00:36:35.635Z,69.50
2017-09-09T00:39:03.925Z,69.70
2017-09-09T00:41:31.412Z,69.70
2017-09-09T00:43:58.957Z,69.70
2017-09-09T00:46:26.457Z,69.80
2017-09-09T00:48:54.716Z,69.90
2017-09-09T00:51:22.241Z,69.90
2017-09-09T00:53:49.751Z,70.00
2017-09-09T00:56:18.036Z,69.90
2017-09-09T00:58:46.325Z,69.90
2017-09-09T01:01:14.631Z,70.00
2017-09-09T01:03:42.128Z,70.00
2017-09-09T01:06:09.650Z,70.00
2017-09-09T01:08:37.144Z,70.10
2017-09-09T01:11:04.645Z,70.40
2017-09-09T01:13:32.160Z,70.40
2017-09-09T01:15:59.657Z,70.20
2017-09-09T01:18:27.172Z,70.30
2017-09-09T01:20:54.661Z,70.30
2017-09-09T01:23:22.939Z,70.10
2017-09-09T01:25:50.469Z,70.00
2017-09-09T01:28:18.732Z,71.10
2017-09-09T01:30:46.226Z,70.10
2017-09-09T01:33:13.753Z,70.00
2017-09-09T01:35:41.267Z,70.00
2017-09-09T01:38:08.789Z,70.10
2017-09-09T01:40:37.044Z,70.00
2017-09-09T01:43:04.564Z,70.00
2017-09-09T01:45:32.049Z,70.00
2017-09-09T01:47:59.586Z,69.70
2017-09-09T01:50:27.106Z,69.90
2017-09-09T01:52:54.612Z,69.70
2017-09-09T01:55:22.139Z,69.80
2017-09-09T01:57:49.627Z,70.00
2017-09-09T02:00:17.125Z,70.00
2017-09-09T02:02:45.392Z,69.60
2017-09-09T02:05:13.649Z,70.20
2017-09-09T02:07:41.181Z,70.20
2017-09-09T02:10:08.680Z,69.80
2017-09-09T02:12:36.944Z,70.50
2017-09-09T02:15:04.447Z,70.40
2017-09-09T02:17:31.970Z,70.50
2017-09-09T02:20:00.232Z,70.10
2017-09-09T02:22:28.540Z,70.00
2017-09-09T02:24:56.028Z,70.00
2017-09-09T02:27:23.526Z,70.30
2017-09-09T02:29:51.038Z,70.50
2017-09-09T02:32:18.524Z,70.80
2017-09-09T02:34:46.038Z,71.10
2017-09-09T02:37:13.551Z,71.40
2017-09-09T02:39:41.862Z,71.70
2017-09-09T02:42:09.358Z,71.60
2017-09-09T02:44:36.849Z,71.70
2017-09-09T02:47:05.133Z,71.80
2017-09-09T02:49:33.400Z,71.70
2017-09-09T02:52:00.915Z,71.60
2017-09-09T02:54:28.423Z,71.70
2017-09-09T02:56:56.693Z,71.80
2017-09-09T02:59:25.005Z,72.00
2017-09-09T03:01:52.496Z,71.90
2017-09-09T03:04:20.009Z,72.20
2017-09-09T03:06:47.506Z,72.20
2017-09-09T03:09:15.009Z,72.30
2017-09-09T03:11:43.276Z,72.60
2017-09-09T03:14:11.553Z,72.80
2017-09-09T03:16:39.840Z,72.90
2017-09-09T03:19:07.345Z,72.80
2017-09-09T03:21:34.842Z,73.00
2017-09-09T03:24:03.130Z,73.10
2017-09-09T03:26:31.398Z,73.10
2017-09-09T03:28:59.676Z,73.20
2017-09-09T03:31:27.928Z,73.20
2017-09-09T03:33:55.453Z,73.20
2017-09-09T03:36:22.945Z,73.30
2017-09-09T03:38:50.477Z,73.30
2017-09-09T03:41:17.969Z,72.90
2017-09-09T03:43:46.242Z,72.80
2017-09-09T03:46:14.549Z,72.70
2017-09-09T03:48:42.033Z,72.70
2017-09-09T03:51:09.538Z,72.80
2017-09-09T03:53:37.797Z,72.80
2017-09-09T03:56:06.072Z,72.80
2017-09-09T03:58:33.560Z,72.70
2017-09-09T04:01:01.088Z,72.70
2017-09-09T04:03:29.367Z,72.30
2017-09-09T04:05:56.853Z,72.70
2017-09-09T04:08:24.376Z,72.80
2017-09-09T04:10:52.632Z,72.70
2017-09-09T04:13:20.112Z,72.70
2017-09-09T04:15:48.380Z,73.20
2017-09-09T04:18:15.870Z,72.80
2017-09-09T04:20:43.393Z,72.70
2017-09-09T04:23:11.648Z,72.50
2017-09-09T04:25:39.131Z,72.50
2017-09-09T04:28:06.634Z,72.20
2017-09-09T04:30:34.116Z,72.10
2017-09-09T04:33:01.631Z,72.20
2017-09-09T04:35:29.115Z,72.30
2017-09-09T04:37:56.628Z,72.50
2017-09-09T04:40:24.876Z,72.60
2017-09-09T04:42:52.402Z,72.60
2017-09-09T04:45:19.893Z,72.60
2017-09-09T04:47:47.387Z,72.50
2017-09-09T04:50:15.668Z,72.50
2017-09-09T04:52:43.161Z,72.50
2017-09-09T04:55:10.792Z,72.60
2017-09-09T04:57:38.284Z,72.70
2017-09-09T05:00:05.808Z,73.00
2017-09-09T05:02:33.318Z,73.10
2017-09-09T05:05:01.577Z,73.10
2017-09-09T05:07:29.185Z,73.00
2017-09-09T05:09:57.438Z,72.90
2017-09-09T05:12:25.721Z,73.10
2017-09-09T05:14:53.988Z,73.70
2017-09-09T05:17:22.250Z,73.10
2017-09-09T05:19:49.764Z,73.10
2017-09-09T05:22:17.245Z,73.40
2017-09-09T05:24:44.752Z,73.50
2017-09-09T05:27:12.248Z,73.90
2017-09-09T05:29:39.768Z,74.20
2017-09-09T05:32:08.025Z,75.50
2017-09-09T05:34:36.334Z,75.60
2017-09-09T05:37:03.824Z,75.60
2017-09-09T05:39:31.321Z,75.80
2017-09-09T05:41:59.626Z,75.80
2017-09-09T05:44:27.133Z,75.80
2017-09-09T05:46:54.625Z,75.70
2017-09-09T05:49:22.145Z,75.60
2017-09-09T05:51:49.739Z,75.50
2017-09-09T05:54:18.018Z,75.60
2017-09-09T05:56:46.278Z,75.80
2017-09-09T05:59:14.592Z,75.90
2017-09-09T06:01:42.105Z,75.90
2017-09-09T06:04:10.368Z,75.40
2017-09-09T06:06:37.885Z,75.90
2017-09-09T06:09:05.381Z,76.00
2017-09-09T06:11:32.891Z,76.20
2017-09-09T06:14:00.379Z,76.00
2017-09-09T06:16:27.901Z,76.10
2017-09-09T06:18:55.399Z,76.10
2017-09-09T06:21:22.920Z,76.00
2017-09-09T06:23:50.433Z,75.90
2017-09-09T06:26:17.921Z,76.00
2017-09-09T06:28:45.456Z,76.10
2017-09-09T06:31:13.709Z,76.70
2017-09-09T06:33:41.208Z,76.50
2017-09-09T06:36:08.837Z,76.60
2017-09-09T06:38:36.319Z,76.80
2017-09-09T06:41:03.840Z,76.80
2017-09-09T06:43:31.324Z,77.00
2017-09-09T06:45:59.577Z,77.60
2017-09-09T06:48:27.103Z,77.60
2017-09-09T06:50:54.873Z,78.30
2017-09-09T06:53:22.389Z,78.40
2017-09-09T06:55:49.889Z,78.70
2017-09-09T06:58:17.374Z,78.50
2017-09-09T07:00:44.889Z,78.70
2017-09-09T07:03:12.386Z,78.60
2017-09-09T07:05:39.894Z,78.60
2017-09-09T07:08:07.387Z,78.60
2017-09-09T07:10:34.924Z,78.60
2017-09-09T07:13:02.416Z,78.70
2017-09-09T07:15:29.923Z,79.20
2017-09-09T07:17:57.452Z,79.60
2017-09-09T07:20:25.702Z,80.70
2017-09-09T07:22:53.227Z,80.70
2017-09-09T07:25:20.733Z,81.50
2017-09-09T07:27:49.034Z,82.50
2017-09-09T07:30:16.537Z,82.50
2017-09-09T07:32:44.049Z,82.70
2017-09-09T07:35:11.552Z,82.20
2017-09-09T07:37:39.081Z,82.40
2017-09-09T07:40:06.602Z,82.40
2017-09-09T07:42:34.873Z,82.30
2017-09-09T07:45:03.161Z,81.60
2017-09-09T07:47:31.414Z,81.60
2017-09-09T07:49:59.678Z,81.20
2017-09-09T07:52:27.187Z,81.20
2017-09-09T07:54:54.687Z,81.80
2017-09-09T07:57:22.230Z,82.10
2017-09-09T07:59:49.785Z,81.90
2017-09-09T08:02:17.302Z,82.20
2017-09-09T08:04:45.568Z,82.10
2017-09-09T08:07:13.856Z,81.90
2017-09-09T08:09:41.352Z,81.90
2017-09-09T08:12:08.832Z,81.90
2017-09-09T08:14:36.360Z,82.20
2017-09-09T08:17:03.860Z,82.50
2017-09-09T08:19:32.165Z,83.50
2017-09-09T08:21:59.662Z,83.40
2017-09-09T08:24:27.158Z,83.40
2017-09-09T08:26:55.452Z,83.40
2017-09-09T08:29:22.988Z,83.40
2017-09-09T08:31:51.272Z,83.80
2017-09-09T08:34:19.580Z,83.90
2017-09-09T08:36:47.097Z,83.90
2017-09-09T08:39:15.360Z,83.80
2017-09-09T08:41:42.896Z,83.80
2017-09-09T08:44:10.427Z,84.50
2017-09-09T08:46:37.929Z,84.90
2017-09-09T08:49:05.506Z,85.30
2017-09-09T08:51:33.769Z,86.10
2017-09-09T08:54:02.104Z,86.20
2017-09-09T08:56:29.610Z,86.10
2017-09-09T08:58:57.107Z,87.50
2017-09-09T09:01:24.627Z,87.30
2017-09-09T09:03:52.916Z,86.50
2017-09-09T09:06:21.217Z,86.50
2017-09-09T09:08:48.712Z,86.50
2017-09-09T09:11:16.290Z,86.00
2017-09-09T09:13:44.554Z,86.70
2017-09-09T09:16:12.829Z,86.40
2017-09-09T09:18:40.352Z,86.50
2017-09-09T09:21:07.884Z,86.10
2017-09-09T09:23:35.388Z,85.80
2017-09-09T09:26:02.885Z,86.50
2017-09-09T09:28:30.432Z,86.90
2017-09-09T09:30:58.850Z,87.40
2017-09-09T09:33:26.343Z,87.30
2017-09-09T09:35:53.863Z,86.70
2017-09-09T09:38:21.362Z,87.10
2017-09-09T09:40:48.875Z,87.00
2017-09-09T09:43:16.393Z,86.90
2017-09-09T09:45:44.661Z,86.80
2017-09-09T09:48:12.186Z,86.60
2017-09-09T09:50:39.680Z,86.50
2017-09-09T09:53:07.168Z,86.50
2017-09-09T09:55:34.700Z,85.80
2017-09-09T09:58:02.994Z,85.50
2017-09-09T10:00:30.535Z,85.40
2017-09-09T10:02:58.796Z,84.90
2017-09-09T10:05:27.051Z,85.00
2017-09-09T10:07:54.577Z,85.10
2017-09-09T10:10:22.096Z,84.80
2017-09-09T10:12:50.416Z,84.00
2017-09-09T10:15:17.949Z,84.00
2017-09-09T10:17:46.220Z,83.90
2017-09-09T10:20:14.517Z,84.00
2017-09-09T10:22:42.020Z,83.20
2017-09-09T10:25:14.192Z,83.10
2017-09-09T10:27:41.688Z,83.20
2017-09-09T10:30:09.224Z,83.30
2017-09-09T10:32:37.516Z,83.00
2017-09-09T10:35:05.012Z,82.90
2017-09-09T10:37:32.545Z,82.80
2017-09-09T10:40:00.072Z,82.40
2017-09-09T10:42:28.336Z,83.30
2017-09-09T10:44:56.625Z,83.30
2017-09-09T10:47:24.880Z,83.10
2017-09-09T10:49:52.410Z,83.00
2017-09-09T10:52:19.913Z,82.80
2017-09-09T10:54:48.195Z,81.80
2017-09-09T10:57:16.482Z,82.10
2017-09-09T10:59:44.013Z,82.10
2017-09-09T11:02:11.536Z,81.30
2017-09-09T11:04:39.041Z,81.20
2017-09-09T11:07:07.333Z,80.60
2017-09-09T11:09:34.857Z,80.60
2017-09-09T11:12:03.134Z,80.50
2017-09-09T11:14:30.666Z,80.50
2017-09-09T11:16:58.210Z,79.70
2017-09-09T11:19:26.326Z,79.00
2017-09-09T11:21:54.611Z,77.50
2017-09-09T11:24:22.896Z,77.50
2017-09-09T11:26:51.190Z,77.80
2017-09-09T11:29:18.683Z,77.80
2017-09-09T11:31:46.196Z,76.70
2017-09-09T11:34:13.738Z,76.50
2017-09-09T11:36:42.158Z,76.90
2017-09-09T11:39:09.648Z,75.80
2017-09-09T11:41:37.182Z,75.20
2017-09-09T11:44:04.688Z,74.60
2017-09-09T11:46:32.952Z,75.20
2017-09-09T11:49:01.238Z,74.90
2017-09-09T11:51:29.529Z,75.70
2017-09-09T11:53:57.057Z,75.70
2017-09-09T11:56:25.367Z,74.30
2017-09-09T11:58:52.872Z,73.60
2017-09-09T12:01:20.357Z,73.90
2017-09-09T12:03:48.637Z,73.30
2017-09-09T12:06:16.898Z,72.30
2017-09-09T12:08:45.211Z,73.00
2017-09-09T12:11:12.742Z,72.30
2017-09-09T12:13:41.031Z,73.10
2017-09-09T12:16:08.525Z,73.00
2017-09-09T12:18:36.073Z,73.60
2017-09-09T12:21:03.589Z,73.00
2017-09-09T12:23:31.858Z,73.40
2017-09-09T12:26:00.134Z,72.70
2017-09-09T12:28:28.441Z,73.50
2017-09-09T12:30:55.990Z,73.40
2017-09-09T12:33:24.300Z,73.40
2017-09-09T12:35:51.792Z,74.30
2017-09-09T12:38:19.340Z,72.90
2017-09-09T12:40:46.893Z,74.40
2017-09-09T12:43:14.414Z,74.10
2017-09-09T12:45:41.919Z,74.20
2017-09-09T12:48:09.445Z,73.40
2017-09-09T12:50:36.971Z,72.90
2017-09-09T12:53:04.494Z,73.20
2017-09-09T12:55:31.987Z,73.30
2017-09-09T12:57:59.496Z,73.70
2017-09-09T13:00:27.029Z,73.30
2017-09-09T13:02:54.525Z,73.50
2017-09-09T13:05:22.041Z,73.70
2017-09-09T13:07:49.538Z,73.70
2017-09-09T13:10:17.053Z,73.60
2017-09-09T13:12:44.588Z,73.80
2017-09-09T13:15:12.084Z,73.70
2017-09-09T13:17:39.577Z,73.40
2017-09-09T13:20:07.878Z,73.60
2017-09-09T13:22:35.400Z,73.20
2017-09-09T13:25:02.916Z,73.30
2017-09-09T13:27:30.424Z,73.30
2017-09-09T13:29:58.776Z,73.00
2017-09-09T13:32:26.312Z,72.90
2017-09-09T13:34:53.808Z,72.60
2017-09-09T13:37:21.332Z,72.60
2017-09-09T13:39:48.831Z,72.90
2017-09-09T13:42:17.095Z,72.70
2017-09-09T13:44:45.405Z,72.40
2017-09-09T13:47:12.894Z,72.30
2017-09-09T13:49:40.408Z,72.50
2017-09-09T13:52:08.692Z,72.80
2017-09-09T13:54:36.213Z,72.80
2017-09-09T13:57:03.726Z,72.70
2017-09-09T13:59:31.220Z,73.60
2017-09-09T14:01:58.752Z,74.90
2017-09-09T14:04:26.292Z,77.30
2017-09-09T14:06:53.812Z,78.60
2017-09-09T14:09:21.334Z,79.00
2017-09-09T14:11:48.838Z,81.20
2017-09-09T14:14:17.102Z,84.80
2017-09-09T14:16:44.636Z,84.70
2017-09-09T14:19:12.186Z,82.70
2017-09-09T14:21:39.708Z,81.00
2017-09-09T14:24:07.216Z,80.90
2017-09-09T14:26:34.713Z,81.20
2017-09-09T14:29:03.006Z,85.30
2017-09-09T14:31:30.501Z,85.40
2017-09-09T14:33:58.042Z,85.80
2017-09-09T14:36:25.544Z,86.20
2017-09-09T14:38:53.824Z,87.10
2017-09-09T14:41:22.087Z,88.40
2017-09-09T14:43:50.352Z,87.40
2017-09-09T14:46:17.888Z,88.10
2017-09-09T14:48:45.389Z,87.90
2017-09-09T14:51:13.643Z,88.70
2017-09-09T14:53:42.681Z,88.90
2017-09-09T14:56:10.164Z,88.90
2017-09-09T14:58:37.676Z,89.30
2017-09-09T15:01:05.958Z,88.20
2017-09-09T15:03:34.240Z,88.30
2017-09-09T15:06:01.787Z,88.20
2017-09-09T15:08:30.101Z,87.20
2017-09-09T15:10:57.597Z,87.20
2017-09-09T15:13:25.120Z,88.50
2017-09-09T15:15:52.608Z,87.50
2017-09-09T15:18:20.108Z,86.90
2017-09-09T15:20:47.625Z,87.00
2017-09-09T15:23:15.896Z,87.70
2017-09-09T15:25:43.417Z,87.70
2017-09-09T15:28:10.914Z,88.50
2017-09-09T15:30:38.427Z,88.40
2017-09-09T15:33:05.952Z,88.60
2017-09-09T15:35:34.221Z,83.60
2017-09-09T15:38:02.623Z,82.30
2017-09-09T15:40:30.118Z,82.20
2017-09-09T15:42:57.648Z,80.80
2017-09-09T15:45:25.145Z,80.40
2017-09-09T15:47:53.419Z,78.90
2017-09-09T15:50:20.971Z,79.00
2017-09-09T15:52:48.461Z,78.70
2017-09-09T15:55:16.756Z,78.90
2017-09-09T15:57:44.332Z,78.80
2017-09-09T16:00:11.827Z,79.30
2017-09-09T16:02:40.115Z,81.00
2017-09-09T16:05:08.369Z,80.70
2017-09-09T16:07:35.890Z,80.80
2017-09-09T16:10:03.412Z,81.20
2017-09-09T16:12:31.662Z,83.20
2017-09-09T16:14:59.205Z,83.20
2017-09-09T16:17:26.734Z,83.80
2017-09-09T16:19:54.267Z,84.20
2017-09-09T16:22:22.565Z,84.30
2017-09-09T16:24:50.089Z,84.30
2017-09-09T16:27:18.356Z,86.00
2017-09-09T16:29:46.636Z,85.60
2017-09-09T16:32:14.936Z,87.50
2017-09-09T16:34:43.198Z,88.20
2017-09-09T16:37:11.471Z,87.90
2017-09-09T16:39:39.886Z,88.20
2017-09-09T16:42:07.399Z,88.20
2017-09-09T16:44:34.948Z,87.60
2017-09-09T16:47:02.474Z,88.40
2017-09-09T16:49:30.006Z,89.10
2017-09-09T16:51:57.529Z,89.30
2017-09-09T16:54:25.813Z,90.00
2017-09-09T16:56:54.081Z,90.30
2017-09-09T16:59:22.403Z,90.50
2017-09-09T17:01:49.889Z,90.30
2017-09-09T17:04:17.420Z,90.20
2017-09-09T17:06:44.935Z,90.30
2017-09-09T17:09:13.228Z,90.00
2017-09-09T17:11:40.753Z,90.00
2017-09-09T17:14:08.240Z,90.30
2017-09-09T17:16:35.744Z,90.20
2017-09-09T17:19:03.285Z,90.30
2017-09-09T17:21:30.792Z,90.30
2017-09-09T17:23:59.081Z,90.70
2017-09-09T17:26:27.401Z,90.90
2017-09-09T17:28:54.908Z,90.90
2017-09-09T17:31:23.181Z,90.80
2017-09-09T17:33:51.462Z,90.90
2017-09-09T17:36:19.742Z,91.10
2017-09-09T17:38:48.063Z,91.30
2017-09-09T17:41:15.589Z,91.20
2017-09-09T17:43:43.099Z,91.20
2017-09-09T17:46:10.636Z,91.00
2017-09-09T17:48:38.149Z,90.70
2017-09-09T17:51:06.450Z,91.10
2017-09-09T17:53:33.960Z,91.10
2017-09-09T17:56:01.486Z,89.50
2017-09-09T17:58:29.005Z,89.80
2017-09-09T18:00:57.292Z,90.40
2017-09-09T18:03:24.809Z,90.40
2017-09-09T18:05:52.321Z,89.40
2017-09-09T18:08:19.876Z,90.00
2017-09-09T18:10:47.403Z,90.00
2017-09-09T18:13:15.701Z,89.10
2017-09-09T18:15:43.210Z,89.20
2017-09-09T18:18:10.741Z,89.70
2017-09-09T18:20:38.244Z,89.30
2017-09-09T18:23:06.518Z,89.50
2017-09-09T18:25:34.852Z,89.80
2017-09-09T18:28:02.367Z,89.80
2017-09-09T18:30:29.883Z,90.10
2017-09-09T18:32:57.373Z,90.00
2017-09-09T18:35:25.669Z,90.20
2017-09-09T18:37:53.188Z,90.20
2017-09-09T18:40:21.447Z,89.30
2017-09-09T18:42:48.982Z,88.50
2017-09-09T18:45:16.496Z,89.90
2017-09-09T18:47:44.803Z,90.30
2017-09-09T18:50:12.304Z,90.70
2017-09-09T18:52:39.810Z,90.50
2017-09-09T18:55:07.354Z,90.60
2017-09-09T18:57:34.868Z,90.50
2017-09-09T19:00:02.426Z,90.40
2017-09-09T19:02:29.940Z,90.60
2017-09-09T19:04:57.497Z,90.40
2017-09-09T19:07:25.011Z,90.40
2017-09-09T19:09:52.515Z,90.70
2017-09-09T19:12:20.032Z,91.00
2017-09-09T19:14:47.522Z,91.20
2017-09-09T19:17:15.042Z,91.80
2017-09-09T19:19:42.553Z,91.50
2017-09-09T19:22:10.098Z,91.70
2017-09-09T19:24:37.676Z,91.80
2017-09-09T19:27:05.213Z,91.70
2017-09-09T19:29:32.773Z,91.90
2017-09-09T19:32:00.277Z,92.30
2017-09-09T19:34:27.829Z,92.30
2017-09-09T19:36:55.325Z,92.50
2017-09-09T19:39:23.591Z,93.30
2017-09-09T19:41:51.914Z,92.90
2017-09-09T19:44:19.452Z,92.90
2017-09-09T19:46:46.991Z,93.00
2017-09-09T19:49:15.268Z,93.10
2017-09-09T19:51:43.522Z,93.10
2017-09-09T19:54:11.812Z,93.20
2017-09-09T19:56:40.081Z,93.10
2017-09-09T19:59:08.352Z,92.80
2017-09-09T20:01:35.870Z,93.10
2017-09-09T20:04:03.412Z,93.10
2017-09-09T20:06:31.417Z,93.20
2017-09-09T20:08:58.993Z,93.10
2017-09-09T20:11:26.487Z,93.00
2017-09-09T20:13:53.989Z,93.00
2017-09-09T20:16:21.554Z,93.00
2017-09-09T20:18:49.049Z,93.10
2017-09-09T20:21:17.309Z,93.00
2017-09-09T20:23:45.615Z,92.80
2017-09-09T20:26:13.139Z,92.80
2017-09-09T20:28:41.428Z,92.90
2017-09-09T20:31:09.825Z,92.80
2017-09-09T20:33:37.380Z,92.80
2017-09-09T20:36:04.928Z,92.80
2017-09-09T20:38:33.212Z,92.70
2017-09-09T20:41:00.763Z,92.70
2017-09-09T20:43:29.058Z,92.70
2017-09-09T20:45:57.388Z,92.70
2017-09-09T20:48:24.884Z,92.70
2017-09-09T20:50:52.410Z,92.60
2017-09-09T20:53:20.737Z,92.40
2017-09-09T20:55:48.253Z,92.50
2017-09-09T20:58:16.526Z,92.60
2017-09-09T21:00:44.825Z,92.50
2017-09-09T21:03:12.365Z,92.50
2017-09-09T21:05:40.699Z,92.60
2017-09-09T21:08:08.197Z,92.60
2017-09-09T21:10:36.489Z,92.30
2017-09-09T21:13:03.993Z,92.20
2017-09-09T21:15:31.517Z,92.20
2017-09-09T21:17:59.045Z,92.20
2017-09-09T21:20:27.313Z,91.90
2017-09-09T21:22:55.595Z,91.80
2017-09-09T21:25:23.864Z,91.80
2017-09-09T21:27:52.158Z,91.70
2017-09-09T21:30:19.717Z,91.70
2017-09-09T21:32:47.985Z,91.80
2017-09-09T21:35:16.262Z,91.60
2017-09-09T21:37:44.561Z,91.70
2017-09-09T21:40:12.116Z,91.70
2017-09-09T21:42:39.612Z,91.70
2017-09-09T21:45:07.109Z,91.70
2017-09-09T21:47:35.409Z,91.70
2017-09-09T21:50:02.946Z,91.60
2017-09-09T21:52:31.236Z,91.70
2017-09-09T21:54:58.801Z,91.70
2017-09-09T21:57:26.292Z,91.80
2017-09-09T21:59:53.818Z,91.60
2017-09-09T22:02:21.312Z,91.70
2017-09-09T22:04:48.834Z,91.60
2017-09-09T22:07:16.361Z,91.30
2017-09-09T22:09:44.624Z,91.60
2017-09-09T22:12:12.903Z,91.50
2017-09-09T22:14:41.169Z,91.50
2017-09-09T22:17:09.445Z,91.30
2017-09-09T22:19:36.947Z,91.30
2017-09-09T22:22:04.467Z,91.30
2017-09-09T22:24:32.764Z,91.20
2017-09-09T22:27:00.268Z,91.20
2017-09-09T22:29:27.798Z,91.20
2017-09-09T22:31:55.286Z,91.30
2017-09-09T22:34:22.829Z,91.40
2017-09-09T22:36:50.429Z,91.30
2017-09-09T22:39:18.702Z,91.20
2017-09-09T22:41:46.252Z,91.20
2017-09-09T22:44:13.740Z,91.10
2017-09-09T22:46:41.240Z,90.80
2017-09-09T22:49:08.768Z,90.70
2017-09-09T22:51:36.285Z,90.60
2017-09-09T22:54:03.838Z,90.70
2017-09-09T22:56:31.338Z,90.50
2017-09-09T22:58:58.877Z,90.40
2017-09-09T23:01:27.147Z,90.50
2017-09-09T23:03:55.408Z,90.30
2017-09-09T23:06:22.937Z,90.30
2017-09-09T23:08:50.426Z,90.10
2017-09-09T23:11:18.736Z,90.10
2017-09-09T23:13:46.252Z,90.10
2017-09-09T23:16:14.513Z,90.10
2017-09-09T23:18:42.033Z,90.00
2017-09-09T23:21:09.524Z,89.90
2017-09-09T23:23:37.046Z,90.00
2017-09-09T23:26:04.592Z,89.70
2017-09-09T23:28:32.102Z,90.10
2017-09-09T23:30:59.629Z,90.10
2017-09-09T23:33:27.118Z,90.20
2017-09-09T23:35:54.655Z,90.20
2017-09-09T23:38:22.155Z,90.20
2017-09-09T23:40:50.453Z,90.50
2017-09-09T23:43:17.951Z,90.20
2017-09-09T23:45:45.445Z,90.20
2017-09-09T23:48:13.733Z,90.00
2017-09-09T23:50:42.002Z,90.10
2017-09-09T23:53:10.308Z,90.20
2017-09-09T23:55:37.798Z,90.20
2017-09-09T23:58:05.324Z,90.20
